Time;durP1;ratioP1;P1;durP2;ratioP2;P2;SDS_P1;SDS_P2;PMS_P1;PMS_P2;Temp;Humidity;BMP_temperature;BMP_pressure;BME280_temperature;BME280_humidity;BME280_pressure;Samples;Min_cycle;Max_cycle;Signal;HPM_P1;HPM_P2
2022/06/08 00:00:04;;;;;;;4.43;2.40;;;20.30;99.90;;;;;;5089829;28;20198;-74
2022/06/08 00:02:32;;;;;;;4.93;2.13;;;20.30;99.90;;;;;;5091235;28;20217;-75
2022/06/08 00:04:59;;;;;;;3.22;2.28;;;20.30;99.90;;;;;;5089786;28;20288;-75
2022/06/08 00:07:25;;;;;;;3.65;2.20;;;20.40;99.90;;;;;;5091563;28;20181;-75
2022/06/08 00:09:50;;;;;;;4.20;2.55;;;20.40;99.90;;;;;;5091145;28;20251;-75
2022/06/08 00:12:17;;;;;;;3.40;2.10;;;20.40;99.90;;;;;;5092514;28;20202;-75
2022/06/08 00:14:43;;;;;;;2.58;2.25;;;20.30;99.90;;;;;;5091094;28;20198;-75
2022/06/08 00:17:09;;;;;;;3.35;2.30;;;20.30;99.90;;;;;;5091230;28;20612;-75
2022/06/08 00:19:34;;;;;;;3.35;2.40;;;20.40;99.90;;;;;;5090847;28;20227;-75
2022/06/08 00:22:00;;;;;;;2.70;1.80;;;20.40;99.90;;;;;;5091672;28;20194;-75
2022/06/08 00:24:26;;;;;;;2.70;2.03;;;20.30;99.90;;;;;;5089864;28;20214;-74
2022/06/08 00:26:51;;;;;;;2.92;2.13;;;20.40;99.90;;;;;;5091183;28;20665;-75
2022/06/08 00:29:18;;;;;;;3.30;2.30;;;20.30;99.90;;;;;;5090839;28;20212;-75
2022/06/08 00:31:43;;;;;;;2.60;2.15;;;20.40;99.90;;;;;;5091007;28;20202;-74
2022/06/08 00:34:09;;;;;;;4.65;2.67;;;20.40;99.90;;;;;;5094898;28;20230;-74
2022/06/08 00:36:34;;;;;;;3.58;2.38;;;20.30;99.90;;;;;;5095127;28;20202;-74
2022/06/08 00:39:01;;;;;;;2.55;2.00;;;20.30;99.90;;;;;;5094860;28;20672;-75
2022/06/08 00:41:41;;;;;;;3.65;2.38;;;20.30;99.90;;;;;;5094938;28;20214;-74
2022/06/08 00:44:14;;;;;;;3.90;2.25;;;20.30;99.90;;;;;;5095035;28;20232;-75
2022/06/08 00:46:40;;;;;;;4.70;3.00;;;20.30;99.90;;;;;;5095239;28;20171;-75
2022/06/08 00:49:16;;;;;;;5.07;3.00;;;20.20;99.90;;;;;;5093824;28;20167;-75
2022/06/08 00:51:42;;;;;;;6.05;3.28;;;20.20;99.90;;;;;;5095002;28;20209;-75
2022/06/08 00:54:15;;;;;;;4.50;2.78;;;20.20;99.90;;;;;;5094896;28;20693;-75
2022/06/08 00:56:47;;;;;;;4.93;3.63;;;20.20;99.90;;;;;;5093387;28;21341;-75
2022/06/08 00:59:13;;;;;;;5.07;3.40;;;20.20;99.90;;;;;;5093147;28;20229;-75
2022/06/08 01:01:38;;;;;;;5.63;3.58;;;20.10;99.90;;;;;;5094619;28;20743;-75
2022/06/08 01:04:11;;;;;;;5.05;3.60;;;20.10;99.90;;;;;;5093582;28;20274;-75
2022/06/08 01:06:37;;;;;;;7.07;3.70;;;20.10;99.90;;;;;;5094387;28;20224;-75
2022/06/08 01:09:03;;;;;;;4.78;3.53;;;20.10;99.90;;;;;;5094213;28;20250;-75
2022/06/08 01:11:38;;;;;;;5.45;3.88;;;20.00;99.90;;;;;;5094613;28;20290;-75
2022/06/08 01:14:08;;;;;;;7.25;3.60;;;20.00;99.90;;;;;;5094435;28;20289;-75
2022/06/08 01:16:33;;;;;;;3.85;3.30;;;19.90;99.90;;;;;;5094025;28;20646;-75
2022/06/08 01:19:02;;;;;;;5.65;3.65;;;19.90;99.90;;;;;;5093260;28;20174;-75
2022/06/08 01:21:27;;;;;;;6.53;3.78;;;19.90;99.90;;;;;;5094253;28;20209;-75
2022/06/08 01:24:02;;;;;;;5.53;3.30;;;19.90;99.90;;;;;;5094254;28;20198;-75
2022/06/08 01:26:49;;;;;;;6.47;3.83;;;19.90;99.90;;;;;;5092329;28;20270;-74
2022/06/08 01:29:29;;;;;;;4.38;3.20;;;19.80;99.90;;;;;;5092633;28;20293;-75
2022/06/08 01:32:13;;;;;;;3.85;3.30;;;19.80;99.90;;;;;;5094325;28;20205;-75
2022/06/08 01:34:45;;;;;;;4.35;3.72;;;19.70;99.90;;;;;;5093710;28;20611;-75
2022/06/08 01:37:25;;;;;;;6.05;3.33;;;19.70;99.90;;;;;;5094544;28;20198;-75
2022/06/08 01:40:32;;;;;;;7.30;4.07;;;19.60;99.90;;;;;;5077655;28;20213;-75
2022/06/08 01:43:20;;;;;;;5.18;3.42;;;19.50;99.90;;;;;;5080406;28;20214;-75
2022/06/08 01:45:52;;;;;;;5.72;4.18;;;19.50;99.90;;;;;;5093326;28;20742;-75
2022/06/08 01:48:52;;;;;;;4.38;2.75;;;19.40;99.90;;;;;;5093648;28;20207;-75
2022/06/08 01:51:20;;;;;;;6.53;3.45;;;19.30;99.90;;;;;;5093838;28;20221;-73
2022/06/08 01:54:30;;;;;;;5.82;3.53;;;19.30;99.90;;;;;;5093597;28;20198;-74
2022/06/08 01:57:12;;;;;;;3.83;3.17;;;19.30;99.90;;;;;;5031174;28;20291;-75
2022/06/08 02:00:07;;;;;;;6.57;3.60;;;19.30;99.90;;;;;;5087020;28;20209;-74
2022/06/08 02:02:47;;;;;;;5.43;3.88;;;19.30;99.90;;;;;;5093616;28;20218;-75
2022/06/08 02:05:31;;;;;;;5.25;3.35;;;19.20;99.90;;;;;;5106320;22;20395;-71
2022/06/08 02:08:08;;;;;;;4.18;3.53;;;19.20;99.90;;;;;;5062251;28;20685;-71
2022/06/08 02:10:55;;;;;;;4.75;3.65;;;19.10;99.90;;;;;;5052773;28;20190;-71
2022/06/08 02:13:33;;;;;;;4.38;3.17;;;19.10;99.90;;;;;;5052927;28;20645;-71
2022/06/08 02:16:09;;;;;;;4.35;3.15;;;19.00;99.90;;;;;;5040830;28;20191;-71
2022/06/08 02:18:42;;;;;;;5.72;3.35;;;19.00;99.90;;;;;;5032203;28;20207;-71
2022/06/08 02:21:14;;;;;;;4.80;3.13;;;18.90;99.90;;;;;;5032669;28;20212;-71
2022/06/08 02:23:46;;;;;;;3.25;2.80;;;18.90;99.90;;;;;;5032377;28;20205;-71
2022/06/08 02:26:28;;;;;;;4.75;2.80;;;19.00;99.90;;;;;;5032555;28;20208;-71
2022/06/08 02:29:00;;;;;;;4.97;3.22;;;19.00;99.90;;;;;;5022599;28;20292;-71
2022/06/08 02:31:46;;;;;;;4.82;2.70;;;18.90;99.90;;;;;;5041687;28;20629;-71
2022/06/08 02:34:28;;;;;;;4.00;3.10;;;18.90;99.90;;;;;;5043628;28;20695;-71
2022/06/08 02:37:25;;;;;;;3.65;3.10;;;18.90;99.90;;;;;;5025675;28;20207;-71
2022/06/08 02:39:53;;;;;;;4.13;3.03;;;18.80;99.90;;;;;;5040212;28;20200;-70
2022/06/08 02:42:45;;;;;;;5.25;2.88;;;18.90;99.90;;;;;;5040428;28;20227;-71
2022/06/08 02:45:26;;;;;;;3.97;3.13;;;19.00;99.90;;;;;;5040325;28;20207;-71
2022/06/08 02:47:54;;;;;;;4.75;2.80;;;19.00;99.90;;;;;;5040251;28;20204;-70
2022/06/08 02:50:23;;;;;;;5.40;2.97;;;19.00;99.90;;;;;;5040249;28;20205;-70
2022/06/08 02:52:50;;;;;;;3.00;2.75;;;19.10;99.90;;;;;;5040303;28;20172;-71
2022/06/08 02:55:44;;;;;;;3.60;2.92;;;19.00;99.90;;;;;;5040728;28;20193;-71
2022/06/08 02:58:18;;;;;;;8.80;3.08;;;19.10;99.90;;;;;;5039914;28;20250;-70
2022/06/08 03:00:51;;;;;;;5.25;3.47;;;19.10;99.90;;;;;;5043167;28;20207;-71
2022/06/08 03:03:20;;;;;;;5.28;3.00;;;19.20;99.90;;;;;;5043553;28;20708;-71
2022/06/08 03:05:58;;;;;;;4.90;3.42;;;19.20;99.90;;;;;;5039794;28;20226;-70
2022/06/08 03:08:42;;;;;;;3.63;3.22;;;19.30;99.90;;;;;;5020147;28;20200;-70
2022/06/08 03:11:10;;;;;;;3.00;2.70;;;19.20;99.90;;;;;;5043497;28;20215;-70
2022/06/08 03:13:48;;;;;;;5.22;3.47;;;19.30;99.90;;;;;;5040990;28;20184;-70
2022/06/08 03:16:30;;;;;;;7.47;3.70;;;19.20;99.90;;;;;;5040634;28;20224;-71
2022/06/08 03:19:04;;;;;;;5.63;3.25;;;19.20;99.90;;;;;;5043906;27;20628;-70
2022/06/08 03:21:29;;;;;;;6.30;3.10;;;19.30;99.90;;;;;;5030485;28;20212;-71
2022/06/08 03:23:56;;;;;;;5.40;3.45;;;19.20;99.90;;;;;;5028225;28;20200;-71
2022/06/08 03:26:24;;;;;;;3.17;2.80;;;19.00;99.90;;;;;;5034564;28;20683;-70
2022/06/08 03:28:49;;;;;;;3.72;2.42;;;19.10;99.90;;;;;;5047468;28;20175;-71
2022/06/08 03:31:15;;;;;;;4.47;3.05;;;19.30;99.90;;;;;;5048232;28;20222;-71
2022/06/08 03:33:41;;;;;;;6.28;3.03;;;19.70;99.90;;;;;;5047778;28;20230;-71
2022/06/08 03:36:08;;;;;;;5.05;3.20;;;20.90;99.90;;;;;;5047776;28;20212;-71
2022/06/08 03:38:34;;;;;;;4.25;2.67;;;20.80;99.90;;;;;;5046737;28;20238;-71
2022/06/08 03:40:59;;;;;;;6.18;2.83;;;20.90;99.90;;;;;;5046387;28;20676;-71
2022/06/08 03:43:25;;;;;;;3.42;2.97;;;22.20;99.90;;;;;;5048064;28;20201;-71
2022/06/08 03:45:56;;;;;;;4.43;2.83;;;23.70;99.90;;;;;;5047727;28;20298;-71
2022/06/08 03:48:22;;;;;;;3.97;2.92;;;25.50;99.90;;;;;;5045897;28;20865;-71
2022/06/08 03:50:53;;;;;;;2.75;2.55;;;26.70;99.90;;;;;;5047520;28;20291;-71
2022/06/08 03:53:24;;;;;;;4.85;2.70;;;25.30;99.90;;;;;;5046413;28;20207;-71
2022/06/08 03:55:51;;;;;;;3.83;2.40;;;26.40;99.90;;;;;;5039849;28;20195;-69
2022/06/08 03:58:18;;;;;;;4.43;2.63;;;27.60;99.90;;;;;;5047608;28;20611;-72
2022/06/08 04:00:44;;;;;;;3.05;2.15;;;26.40;99.90;;;;;;5047282;28;20199;-71
2022/06/08 04:03:11;;;;;;;2.70;2.13;;;27.20;99.90;;;;;;5047272;28;20211;-71
2022/06/08 04:05:37;;;;;;;3.08;2.20;;;27.80;99.90;;;;;;5046775;28;20660;-69
2022/06/08 04:08:04;;;;;;;3.80;2.13;;;28.70;99.90;;;;;;5046410;28;20300;-68
2022/06/08 04:10:30;;;;;;;2.70;2.10;;;29.40;99.90;;;;;;5046020;28;20214;-69
2022/06/08 04:12:55;;;;;;;3.38;2.20;;;29.20;99.90;;;;;;5047003;28;20215;-70
2022/06/08 04:18:07;;;;;;;3.55;2.25;;;25.20;99.90;;;;;;5046922;28;20806;-69
2022/06/08 04:20:34;;;;;;;2.50;2.30;;;24.70;99.90;;;;;;5046799;28;20211;-69
2022/06/08 04:23:00;;;;;;;3.05;2.20;;;23.40;99.90;;;;;;5046971;28;20629;-70
2022/06/08 04:25:26;;;;;;;2.22;1.95;;;22.80;99.90;;;;;;5047347;28;20244;-70
2022/06/08 04:27:52;;;;;;;2.80;2.30;;;22.30;99.90;;;;;;5046944;28;20215;-70
2022/06/08 04:30:17;;;;;;;2.47;2.10;;;21.90;99.90;;;;;;5034214;28;20200;-70
2022/06/08 04:32:43;;;;;;;5.30;2.50;;;21.90;99.90;;;;;;5033560;28;20196;-71
2022/06/08 04:35:09;;;;;;;3.88;2.05;;;23.70;99.90;;;;;;5033673;28;20731;-71
2022/06/08 04:37:37;;;;;;;2.03;1.88;;;24.70;99.90;;;;;;5033396;28;20210;-71
2022/06/08 04:40:04;;;;;;;2.05;1.85;;;25.50;99.90;;;;;;5033570;28;20176;-71
2022/06/08 04:42:30;;;;;;;2.75;1.65;;;27.80;99.90;;;;;;5033242;28;20200;-71
2022/06/08 04:44:56;;;;;;;4.60;1.70;;;29.60;99.90;;;;;;5033447;28;20220;-71
2022/06/08 04:47:21;;;;;;;3.58;1.90;;;30.70;99.90;;;;;;5033115;28;20698;-71
2022/06/08 04:49:47;;;;;;;3.10;2.20;;;29.20;99.90;;;;;;5032889;28;20177;-71
2022/06/08 04:52:13;;;;;;;4.45;2.00;;;28.10;99.90;;;;;;5032411;28;20226;-71
2022/06/08 04:54:39;;;;;;;3.20;2.10;;;26.80;99.90;;;;;;5032840;28;20212;-71
2022/06/08 04:57:05;;;;;;;2.15;1.80;;;25.60;99.90;;;;;;5032863;28;20208;-71
2022/06/08 04:59:30;;;;;;;2.95;1.88;;;24.70;99.90;;;;;;5032711;28;20199;-71
2022/06/08 05:01:56;;;;;;;3.72;1.80;;;23.90;99.90;;;;;;5032969;28;20676;-71
2022/06/08 05:04:21;;;;;;;2.00;1.80;;;25.70;99.90;;;;;;5031868;28;20204;-71
2022/06/08 05:06:47;;;;;;;2.80;2.08;;;25.60;99.90;;;;;;5032630;28;20207;-70
2022/06/08 05:09:13;;;;;;;5.53;2.10;;;25.50;99.90;;;;;;5032554;28;20681;-70
2022/06/08 05:11:39;;;;;;;2.55;2.20;;;25.40;99.90;;;;;;5031316;28;20280;-70
2022/06/08 05:14:05;;;;;;;4.20;1.92;;;25.50;99.90;;;;;;5032717;28;20200;-70
2022/06/08 05:16:30;;;;;;;3.28;2.13;;;24.90;99.90;;;;;;5032945;28;20560;-70
2022/06/08 05:18:56;;;;;;;6.53;2.10;;;24.00;99.90;;;;;;5032190;28;20266;-70
2022/06/08 05:21:22;;;;;;;4.07;2.25;;;24.10;99.90;;;;;;5032568;28;20787;-70
2022/06/08 05:23:48;;;;;;;3.20;2.20;;;24.20;99.90;;;;;;5031361;28;20247;-70
2022/06/08 05:26:13;;;;;;;4.47;2.25;;;24.10;99.90;;;;;;5031373;28;20726;-70
2022/06/08 05:28:40;;;;;;;6.00;2.13;;;24.30;99.90;;;;;;5032039;28;20192;-70
2022/06/08 05:31:05;;;;;;;4.25;1.70;;;27.00;99.90;;;;;;5033003;28;20180;-71
2022/06/08 05:33:31;;;;;;;3.22;2.13;;;29.60;99.90;;;;;;5032160;28;20215;-71
2022/06/08 05:35:58;;;;;;;4.15;2.33;;;32.30;99.90;;;;;;5032128;28;20798;-70
2022/06/08 05:38:24;;;;;;;3.97;2.17;;;32.70;97.20;;;;;;5031830;28;20220;-71
2022/06/08 05:40:50;;;;;;;4.68;2.15;;;32.20;95.90;;;;;;5031094;28;20230;-71
2022/06/08 05:43:17;;;;;;;3.28;2.10;;;31.50;96.00;;;;;;5031442;28;20602;-71
2022/06/08 05:45:45;;;;;;;2.88;2.15;;;30.80;96.90;;;;;;5030568;28;20288;-72
2022/06/08 05:48:11;;;;;;;3.40;2.20;;;30.30;97.30;;;;;;5031666;28;20634;-71
2022/06/08 05:50:37;;;;;;;5.00;2.70;;;29.20;98.40;;;;;;5031835;28;20203;-71
2022/06/08 05:53:04;;;;;;;4.00;2.53;;;27.70;99.90;;;;;;5031542;28;20731;-71
2022/06/08 05:55:30;;;;;;;3.30;2.38;;;26.70;99.90;;;;;;5032367;28;20231;-70
2022/06/08 05:57:56;;;;;;;4.68;2.88;;;26.30;99.90;;;;;;5031611;28;20703;-70
2022/06/08 06:00:25;;;;;;;7.22;2.47;;;26.50;99.90;;;;;;5031571;28;20200;-70
2022/06/08 06:02:51;;;;;;;3.08;2.20;;;26.50;99.90;;;;;;5031884;28;20567;-70
2022/06/08 06:05:21;;;;;;;4.35;2.47;;;26.60;99.90;;;;;;5031599;28;20265;-70
2022/06/08 06:07:47;;;;;;;3.20;2.42;;;26.80;99.90;;;;;;5031610;28;20183;-71
2022/06/08 06:10:14;;;;;;;2.70;2.22;;;27.10;99.90;;;;;;5032063;28;20180;-70
2022/06/08 06:12:40;;;;;;;2.72;2.28;;;27.70;99.90;;;;;;5031459;28;20240;-71
2022/06/08 06:15:07;;;;;;;5.53;2.03;;;28.80;99.90;;;;;;5030655;28;20286;-70
2022/06/08 06:17:33;;;;;;;3.30;2.78;;;29.40;99.90;;;;;;5031077;28;20240;-71
2022/06/08 06:19:59;;;;;;;5.45;2.33;;;30.50;99.90;;;;;;5031066;28;20200;-71
2022/06/08 06:22:25;;;;;;;3.58;2.45;;;31.50;99.10;;;;;;5031204;28;20205;-71
2022/06/08 06:24:51;;;;;;;2.42;2.15;;;32.40;96.40;;;;;;5029191;28;20207;-71
2022/06/08 06:27:16;;;;;;;3.88;2.47;;;33.80;94.80;;;;;;5029808;28;20826;-70
2022/06/08 06:29:42;;;;;;;3.35;2.33;;;33.10;92.60;;;;;;5030019;28;20207;-71
2022/06/08 06:32:15;;;;;;;3.13;2.60;;;32.40;93.40;;;;;;5029565;28;20203;-71
2022/06/08 06:34:40;;;;;;;3.15;2.30;;;32.10;93.80;;;;;;5031141;28;20188;-71
2022/06/08 06:37:06;;;;;;;4.72;2.63;;;31.90;94.30;;;;;;5031052;28;20230;-71
2022/06/08 06:39:32;;;;;;;3.00;2.28;;;31.40;94.50;;;;;;5030600;28;20199;-71
2022/06/08 06:41:59;;;;;;;2.50;2.13;;;31.20;95.30;;;;;;5030421;28;20208;-71
2022/06/08 06:44:24;;;;;;;2.30;2.08;;;30.80;94.70;;;;;;5030346;28;20207;-71
2022/06/08 06:46:50;;;;;;;3.65;2.33;;;30.30;95.50;;;;;;5030771;28;20270;-71
2022/06/08 06:49:16;;;;;;;2.80;2.28;;;30.10;96.20;;;;;;5030866;28;20755;-71
2022/06/08 06:51:42;;;;;;;2.90;2.13;;;29.80;96.50;;;;;;5030454;28;20203;-70
2022/06/08 06:54:11;;;;;;;2.20;2.00;;;29.90;96.80;;;;;;5029016;28;20212;-70
2022/06/08 06:56:37;;;;;;;2.63;1.83;;;30.40;96.60;;;;;;5028477;28;20287;-71
2022/06/08 06:59:04;;;;;;;3.10;2.10;;;31.10;95.60;;;;;;5028654;28;20307;-71
2022/06/08 07:01:30;;;;;;;2.47;2.20;;;31.40;95.00;;;;;;5031019;28;20200;-75
2022/06/08 07:03:55;;;;;;;2.45;2.13;;;31.10;95.20;;;;;;5030563;28;20255;-74
2022/06/08 07:06:21;;;;;;;2.80;1.80;;;31.20;94.90;;;;;;5029544;28;20620;-73
2022/06/08 07:08:46;;;;;;;2.50;2.30;;;31.20;94.80;;;;;;5030686;28;20601;-74
2022/06/08 07:13:57;;;;;;;2.72;2.00;;;31.00;95.20;;;;;;5031616;28;20258;-73
2022/06/08 07:16:23;;;;;;;2.83;2.22;;;30.10;95.60;;;;;;5030246;28;20207;-72
2022/06/08 07:18:48;;;;;;;3.95;2.05;;;29.60;96.60;;;;;;5029804;28;20212;-72
2022/06/08 07:21:14;;;;;;;4.22;1.98;;;29.30;97.10;;;;;;5029114;28;20447;-72
2022/06/08 07:23:41;;;;;;;2.80;2.30;;;28.80;98.10;;;;;;5031293;28;20247;-71
2022/06/08 07:26:06;;;;;;;2.50;2.30;;;28.40;98.70;;;;;;5028960;28;20212;-73
2022/06/08 07:28:32;;;;;;;3.95;1.95;;;27.60;99.50;;;;;;5030041;28;20263;-73
2022/06/08 07:30:58;;;;;;;3.28;1.75;;;27.50;99.90;;;;;;5030528;28;20241;-72
2022/06/08 07:33:23;;;;;;;4.72;2.17;;;27.10;99.90;;;;;;5030004;28;20255;-71
2022/06/08 07:35:49;;;;;;;3.92;2.00;;;26.60;99.90;;;;;;5030297;28;20205;-73
2022/06/08 07:38:15;;;;;;;2.55;1.83;;;27.20;99.90;;;;;;5029771;28;20660;-73
2022/06/08 07:40:40;;;;;;;4.15;1.70;;;28.20;99.90;;;;;;5030702;28;20180;-73
2022/06/08 07:43:06;;;;;;;2.58;1.10;;;29.60;99.70;;;;;;5030525;28;20191;-73
2022/06/08 07:45:32;;;;;;;1.77;1.13;;;29.90;98.70;;;;;;5029872;28;20674;-72
2022/06/08 07:50:42;;;;;;;3.53;1.70;;;32.60;95.40;;;;;;5030062;28;20242;-73
2022/06/08 07:53:08;;;;;;;4.30;1.77;;;34.10;93.40;;;;;;5029958;28;20207;-73
2022/06/08 07:55:34;;;;;;;2.22;1.38;;;35.40;91.30;;;;;;5030084;28;20192;-72
2022/06/08 07:58:02;;;;;;;2.40;1.30;;;35.30;90.10;;;;;;5030305;28;20532;-72
2022/06/08 08:00:28;;;;;;;2.13;1.40;;;34.20;90.40;;;;;;5030054;28;20213;-72
2022/06/08 08:02:54;;;;;;;3.55;1.50;;;33.90;91.10;;;;;;5030403;28;20255;-73
2022/06/08 08:05:20;;;;;;;2.45;1.63;;;33.00;91.20;;;;;;5031531;28;20286;-73
2022/06/08 08:07:46;;;;;;;1.92;1.48;;;32.40;92.30;;;;;;5052626;23;20224;-74
2022/06/08 08:10:16;;;;;;;2.78;1.23;;;31.80;93.00;;;;;;5029838;28;20179;-74
2022/06/08 08:12:41;;;;;;;2.75;1.70;;;32.60;92.60;;;;;;5035105;28;20207;-74
2022/06/08 08:15:08;;;;;;;2.20;1.55;;;32.40;93.30;;;;;;5045595;28;20222;-73
2022/06/08 08:17:34;;;;;;;4.13;1.40;;;32.80;93.10;;;;;;5018521;28;20316;-74
2022/06/08 08:19:59;;;;;;;3.55;1.73;;;32.80;92.60;;;;;;5002071;28;20228;-74
2022/06/08 08:22:25;;;;;;;2.25;1.67;;;33.50;92.40;;;;;;5015264;28;20187;-74
2022/06/08 08:24:51;;;;;;;2.13;1.35;;;33.20;91.60;;;;;;5017489;28;20236;-74
2022/06/08 08:27:17;;;;;;;1.42;1.20;;;32.70;92.20;;;;;;5017161;28;20623;-74
2022/06/08 08:29:42;;;;;;;2.90;1.50;;;33.10;92.20;;;;;;5020603;28;20231;-73
2022/06/08 08:32:10;;;;;;;1.33;1.23;;;34.30;91.10;;;;;;5012943;28;20212;-74
2022/06/08 08:34:36;;;;;;;2.05;1.30;;;34.40;90.60;;;;;;5012607;28;20208;-74
2022/06/08 08:37:01;;;;;;;4.78;1.58;;;33.10;91.20;;;;;;5013139;28;20665;-74
2022/06/08 08:39:27;;;;;;;1.70;1.60;;;32.20;92.30;;;;;;5012736;28;20271;-75
2022/06/08 08:44:41;;;;;;;1.55;1.45;;;33.80;93.00;;;;;;5022172;28;20207;-75
2022/06/08 08:47:35;;;;;;;1.83;1.52;;;34.80;90.50;;;;;;5013941;28;20212;-77
2022/06/08 08:50:53;;;;;;;3.03;1.42;;;34.80;90.10;;;;;;4990462;28;20570;-76
2022/06/08 08:53:40;;;;;;;1.38;1.27;;;34.80;90.00;;;;;;4937470;29;20528;-76
2022/06/08 08:56:32;;;;;;;1.55;1.40;;;35.20;89.30;;;;;;4936817;29;20217;-76
2022/06/08 08:59:00;;;;;;;1.67;1.40;;;33.40;88.60;;;;;;5003723;28;20581;-75
2022/06/08 09:01:35;;;;;;;4.00;1.40;;;32.10;91.00;;;;;;5012508;28;20315;-75
2022/06/08 09:04:12;;;;;;;3.47;1.50;;;31.60;91.70;;;;;;5012796;28;20215;-75
2022/06/08 09:06:39;;;;;;;4.97;1.45;;;31.00;92.70;;;;;;5012172;28;20221;-76
2022/06/08 09:09:12;;;;;;;3.38;1.70;;;30.80;92.90;;;;;;5005475;28;20231;-76
2022/06/08 09:11:41;;;;;;;2.03;1.35;;;30.80;93.40;;;;;;5016560;28;20209;-76
2022/06/08 09:14:19;;;;;;;3.88;1.98;;;31.40;93.00;;;;;;5019420;28;20682;-76
2022/06/08 09:16:50;;;;;;;3.22;1.70;;;31.20;93.00;;;;;;5011928;28;20220;-76
2022/06/08 09:19:22;;;;;;;6.28;4.07;;;30.40;93.70;;;;;;5012535;28;20181;-75
2022/06/08 09:22:08;;;;;;;3.50;2.72;;;30.30;94.90;;;;;;5012255;28;20232;-76
2022/06/08 09:24:34;;;;;;;3.42;1.92;;;31.30;94.50;;;;;;5010798;28;20204;-76
2022/06/08 09:27:22;;;;;;;4.68;3.42;;;30.70;94.00;;;;;;5011905;28;20205;-76
2022/06/08 09:29:51;;;;;;;4.95;1.83;;;30.30;94.70;;;;;;5012474;28;20748;-76
2022/06/08 09:32:40;;;;;;;3.33;2.28;;;29.50;95.40;;;;;;5011200;28;20209;-76
2022/06/08 09:35:29;;;;;;;2.35;1.98;;;29.30;95.90;;;;;;5011217;28;20197;-77
2022/06/08 09:38:06;;;;;;;10.15;6.47;;;30.00;96.50;;;;;;5004765;28;20545;-77
2022/06/08 09:40:54;;;;;;;4.50;1.90;;;30.40;95.30;;;;;;5011618;28;20470;-76
2022/06/08 09:44:01;;;;;;;3.88;2.00;;;30.10;95.00;;;;;;5013050;28;20662;-76
2022/06/08 09:53:21;;;;;;;3.47;1.80;;;29.40;96.30;;;;;;5012341;28;20231;-76
2022/06/08 09:56:01;;;;;;;2.47;1.15;;;29.50;96.50;;;;;;4958696;28;20265;-76
2022/06/08 09:59:14;;;;;;;1.60;1.20;;;29.40;95.30;;;;;;5010912;28;20238;-77
2022/06/08 10:01:51;;;;;;;1.30;1.20;;;30.30;96.00;;;;;;4968327;28;20217;-76
2022/06/08 10:04:26;;;;;;;4.18;1.90;;;30.80;94.70;;;;;;5004274;28;20530;-76
2022/06/08 10:07:17;;;;;;;2.75;1.27;;;30.80;94.60;;;;;;5011749;28;20744;-77
2022/06/08 10:09:46;;;;;;;3.50;1.27;;;30.40;94.40;;;;;;5007368;28;20213;-75
2022/06/08 10:12:44;;;;;;;1.50;1.02;;;30.40;94.80;;;;;;5008107;28;20268;-76
2022/06/08 10:15:27;;;;;;;2.13;1.27;;;30.40;94.60;;;;;;5013700;28;20674;-76
2022/06/08 10:18:18;;;;;;;2.15;1.63;;;30.50;94.80;;;;;;5011598;28;20249;-76
2022/06/08 10:21:14;;;;;;;1.92;1.30;;;30.60;95.20;;;;;;5013111;28;20201;-76
2022/06/08 10:23:55;;;;;;;3.75;1.67;;;30.90;94.60;;;;;;5010362;28;20197;-76
2022/06/08 10:26:44;;;;;;;1.77;1.30;;;31.10;94.10;;;;;;5010518;28;20215;-76
2022/06/08 10:29:36;;;;;;;3.35;2.22;;;29.80;94.10;;;;;;5010743;28;20205;-76
2022/06/08 10:32:17;;;;;;;3.90;1.90;;;28.30;96.00;;;;;;5010477;28;20213;-76
2022/06/08 10:34:43;;;;;;;3.28;1.48;;;27.80;97.20;;;;;;5010399;28;20666;-76
2022/06/08 10:37:22;;;;;;;2.83;1.70;;;27.90;97.30;;;;;;5002675;28;20208;-76
2022/06/08 10:39:49;;;;;;;3.00;1.30;;;28.00;97.40;;;;;;5011438;28;20665;-76
2022/06/08 10:45:00;;;;;;;2.47;1.10;;;28.40;96.90;;;;;;5013171;28;20220;-76
2022/06/08 10:47:34;;;;;;;1.73;1.30;;;28.40;97.00;;;;;;5009848;28;20239;-76
2022/06/08 10:50:00;;;;;;;2.00;1.20;;;28.20;97.20;;;;;;5009737;28;20209;-76
2022/06/08 10:52:46;;;;;;;3.50;1.30;;;28.30;97.90;;;;;;5010400;28;20173;-76
2022/06/08 10:55:18;;;;;;;2.55;1.30;;;27.70;97.60;;;;;;5010170;28;20204;-76
2022/06/08 10:57:49;;;;;;;1.83;0.93;;;27.90;98.40;;;;;;5021928;28;20708;-75
2022/06/08 11:00:18;;;;;;;2.72;1.00;;;27.90;97.30;;;;;;5013662;28;20213;-76
2022/06/08 11:02:53;;;;;;;1.92;1.00;;;27.50;97.10;;;;;;5009467;28;20228;-76
2022/06/08 11:05:28;;;;;;;1.40;0.85;;;27.50;97.70;;;;;;5012803;28;20287;-77
2022/06/08 11:08:04;;;;;;;3.50;1.08;;;27.50;98.00;;;;;;5014251;28;20285;-76
2022/06/08 11:10:49;;;;;;;2.97;1.35;;;27.60;98.30;;;;;;5014027;28;20168;-76
2022/06/08 11:13:18;;;;;;;3.47;1.42;;;27.60;99.60;;;;;;5013839;28;20203;-76
2022/06/08 11:15:48;;;;;;;2.10;1.60;;;27.80;99.90;;;;;;5009486;28;20215;-76
2022/06/08 11:18:24;;;;;;;2.95;1.92;;;27.60;99.10;;;;;;5011389;28;20295;-75
2022/06/08 11:21:06;;;;;;;9.60;4.93;;;27.70;99.90;;;;;;5010000;28;20200;-76
2022/06/08 11:23:40;;;;;;;5.90;2.35;;;27.80;99.90;;;;;;5010905;28;20303;-77
2022/06/08 11:26:23;;;;;;;4.82;1.65;;;28.10;99.80;;;;;;5010208;28;20730;-76
2022/06/08 11:29:00;;;;;;;8.98;3.05;;;28.10;99.90;;;;;;5009344;28;20630;-76
2022/06/08 11:31:28;;;;;;;3.15;1.20;;;28.80;99.90;;;;;;5009654;28;20242;-77
2022/06/08 11:34:18;;;;;;;4.75;1.98;;;28.20;98.70;;;;;;5010764;28;20236;-77
2022/06/08 11:37:14;;;;;;;1.80;1.20;;;28.50;99.90;;;;;;5009642;28;20209;-74
2022/06/08 11:39:43;;;;;;;2.08;1.30;;;28.60;98.90;;;;;;5010840;28;20208;-76
2022/06/08 11:42:14;;;;;;;1.05;0.93;;;29.10;98.00;;;;;;5006395;28;20205;-76
2022/06/08 11:44:50;;;;;;;2.88;1.00;;;29.20;97.60;;;;;;5010455;28;20232;-76
2022/06/08 11:47:22;;;;;;;2.17;1.20;;;29.20;98.00;;;;;;5005225;28;20209;-76
2022/06/08 11:50:01;;;;;;;1.00;0.90;;;29.20;97.30;;;;;;5013084;28;20271;-76
2022/06/08 11:52:29;;;;;;;2.13;1.92;;;29.30;97.10;;;;;;5013823;28;20184;-76
2022/06/08 11:55:02;;;;;;;2.85;1.10;;;29.10;97.30;;;;;;5014467;28;20254;-76
2022/06/08 11:57:28;;;;;;;1.13;0.90;;;28.60;97.50;;;;;;5012847;28;20231;-76
2022/06/08 11:59:56;;;;;;;4.15;1.02;;;28.30;97.80;;;;;;5013008;28;20213;-76
2022/06/08 12:02:24;;;;;;;3.88;1.40;;;28.20;98.20;;;;;;5014315;28;20205;-76
2022/06/08 12:04:57;;;;;;;2.22;1.20;;;28.10;98.80;;;;;;5013259;28;20227;-76
2022/06/08 12:07:42;;;;;;;1.30;1.00;;;27.60;98.50;;;;;;5013177;28;20212;-75
2022/06/08 12:10:12;;;;;;;3.05;1.13;;;27.00;99.40;;;;;;5013147;28;20205;-76
2022/06/08 12:12:41;;;;;;;2.22;1.40;;;27.00;99.50;;;;;;5013952;28;20219;-76
2022/06/08 12:15:31;;;;;;;1.75;0.98;;;26.70;99.60;;;;;;5012337;28;20212;-76
2022/06/08 12:18:08;;;;;;;7.07;2.10;;;26.60;99.90;;;;;;5013734;28;20717;-76
2022/06/08 12:20:39;;;;;;;2.00;1.33;;;26.60;99.90;;;;;;5012676;28;20299;-76
2022/06/08 12:23:05;;;;;;;1.90;1.33;;;26.90;99.90;;;;;;5012701;28;20201;-76
2022/06/08 12:25:32;;;;;;;4.65;2.58;;;27.10;99.90;;;;;;5013159;28;20264;-76
2022/06/08 12:28:16;;;;;;;4.25;1.65;;;27.20;99.50;;;;;;5012620;28;20215;-76
2022/06/08 12:30:44;;;;;;;4.53;1.27;;;26.80;99.60;;;;;;5012172;28;20284;-75
2022/06/08 12:33:13;;;;;;;1.17;1.08;;;26.70;99.90;;;;;;5012568;28;20628;-76
2022/06/08 12:35:51;;;;;;;2.80;2.30;;;26.90;99.90;;;;;;5013625;28;20292;-76
2022/06/08 12:38:21;;;;;;;2.00;0.90;;;27.30;99.80;;;;;;5013304;28;20216;-76
2022/06/08 12:41:12;;;;;;;2.78;0.90;;;27.40;99.10;;;;;;5013871;28;20177;-76
2022/06/08 12:43:48;;;;;;;1.38;0.70;;;27.20;98.80;;;;;;5013744;28;20653;-75
2022/06/08 12:46:34;;;;;;;0.93;0.68;;;26.80;99.00;;;;;;5013768;28;20682;-76
2022/06/08 12:49:13;;;;;;;2.38;0.95;;;27.00;99.40;;;;;;5012241;28;20571;-76
2022/06/08 12:51:43;;;;;;;2.58;0.60;;;26.50;99.50;;;;;;5009261;28;20259;-76
2022/06/08 12:54:16;;;;;;;2.15;0.88;;;26.70;99.80;;;;;;5013749;28;20311;-76
2022/06/08 12:56:44;;;;;;;2.92;1.05;;;27.00;99.90;;;;;;5013815;28;20211;-76
2022/06/08 12:59:11;;;;;;;0.75;0.52;;;27.20;99.90;;;;;;5013164;28;20213;-76
2022/06/08 13:01:38;;;;;;;1.65;0.70;;;27.20;99.40;;;;;;5011919;28;20260;-76
2022/06/08 13:04:04;;;;;;;2.47;0.90;;;27.00;99.40;;;;;;5013717;28;20180;-76
2022/06/08 13:06:31;;;;;;;2.25;0.80;;;27.10;99.70;;;;;;5011635;28;20216;-76
2022/06/08 13:08:57;;;;;;;2.10;1.10;;;26.60;99.70;;;;;;5013434;28;20275;-77
2022/06/08 13:11:25;;;;;;;2.47;0.82;;;26.70;99.90;;;;;;5013074;28;20524;-75
2022/06/08 13:13:54;;;;;;;7.03;4.20;;;26.70;99.90;;;;;;5013093;28;20255;-76
2022/06/08 13:16:24;;;;;;;1.10;1.00;;;27.00;99.90;;;;;;5014767;28;20180;-76
2022/06/08 13:18:51;;;;;;;1.98;1.67;;;27.30;99.90;;;;;;5011696;28;20259;-76
2022/06/08 13:21:18;;;;;;;2.20;1.20;;;27.40;99.30;;;;;;5013508;28;20275;-76
2022/06/08 13:23:44;;;;;;;1.98;1.27;;;27.80;98.90;;;;;;5012173;28;20240;-77
2022/06/08 13:26:19;;;;;;;1.08;0.70;;;28.10;98.90;;;;;;5013013;28;20632;-76
2022/06/08 13:28:46;;;;;;;1.25;0.80;;;28.20;98.50;;;;;;5013100;28;20557;-76
2022/06/08 13:31:11;;;;;;;3.03;0.90;;;28.10;98.90;;;;;;5013889;28;20201;-76